Isle of Tiree, United Kingdom

1:57 AM BST on August 29, 2015 (GMT +0100)
Tiree | | Change Station
CLOSE
Current Station
Airport
Location: Tiree,
Elevation: 39 ft
Nearby Weather Stations

Elev 39 ft 56.50 °N, 6.88 °W | Updated 37 minutes ago

Partly Cloudy
Partly Cloudy
55 °F
Feels Like 55 °F
N
20
Wind Variable Wind from SW

Today
High -- | Low -- °F
--% Chance of Precip.
Yesterday
High -- | Low -- °F
Precip. -- in
6:23 AM 8:31 PM
Waxing Gibbous, 99% visible
Pressure 29.71 in
Visibility 6.2 miles
Clouds Few 1400 ft
Dew Point 52 °F
Humidity 88%
Rainfall 0.00 in
Snow Depth Not available.
UV 0 out of 12
Pollen Not available.
Air Quality Not available.
Flu Activity Not available.
METAR EGPU 290020Z AUTO 23017KT 190V250 9999 FEW014/// 13/11 Q1006
Pressure 29.71 in
Visibility 6.2 miles
Clouds Few 1400 ft
Dew Point 52 °F
Humidity 88%
Rainfall 0.00 in
Snow Depth Not available.
UV 0 out of 12
Pollen Not available.
Air Quality Not available.
Flu Activity Not available.
METAR EGPU 290020Z AUTO 23017KT 190V250 9999 FEW014/// 13/11 Q1006

10-Day Weather Forecast

×

Almanac

Astronomy

Aug. 29, 2015 Rise Set
Actual Time
Civil Twilight
Nautical Twilight
Astronomical Twilight
Moon
Length of Visible Light
Length of Day
Tomorrow will be .
, % of the Moon is Illuminated

Today's Extremes

Country Highs Country Lows

Community

WunderPhotos

Upload Photos

1,850,550 photos uploaded!

WunderBlogs® & News

Nearby

Air Quality

  Air Quality AQ Index Pollutant
Not available.

Snow Depth

Station Depth Elevation

Earthquake Activity

City Distance Mag. Time & Date
Minimum magnitude displayed is 2.5.

Coastal Water Temperatures

Place Temperature

Stations

Nearby Weather Stations

Station Location Temp. Windchill Dew Point Humidity Wind Precip. Elev Updated Type